F/V Ville Croisic 5 — FHZY — position and weather

sailwx.info

Track history (hours):
 
Tides and Currents Weather Stations Pressure Air Temp Water Temp Dewpoint Dewpoint Depression Visibility Wind Speed Wind Dir Waves Ship Positions

F/V Ville Croisic 5

Last reported at 2018-Jun-25 00:28 UTC. Time now 2018-Jun-25 00:41 UTC.
Position N 46°56' W 002°47'.

Length 21 m.

Type: Fishing. MMSI: 228920000.

Date/timePositionNaut miles runAvg speedWind from/ knotsBaromVisibWave heightAir tempDewpointWater temp
2018-Jun-25 00:28N 46°56' W 002°47'4 8.4
2018-Jun-25 00:00N 46°60' W 002°44'5 9.2
2018-Jun-24 23:28N 47°04' W 002°41'4 9.4
2018-Jun-24 23:00N 47°08' W 002°39'4 8.9
2018-Jun-24 22:30N 47°13' W 002°37'4 8.7
2018-Jun-24 22:00N 47°17' W 002°35'3 6.5
2018-Jun-24 21:31N 47°19' W 002°31'1 1.8
2018-Jun-24 21:00N 47°18' W 002°31'3 0.1
2018-Jun-23 00:24N 47°18' W 002°35'4 9.5
2018-Jun-23 00:00N 47°14' W 002°36'5 9.6
2018-Jun-22 23:28N 47°09' W 002°38'48 2.1
2018-Jun-22 00:38N 46°27' W 002°04'110.1
2018-Jun-22 00:31N 46°27' W 002°02'510.3
2018-Jun-22 00:01N 46°28' W 001°55'510.3
2018-Jun-21 23:31N 46°29' W 001°48'1 2.4
2018-Jun-21 23:00N 46°30' W 001°47'0 1.0
2018-Jun-21 22:30N 46°29' W 001°47'4 7.8
2018-Jun-21 22:01N 46°28' W 001°53'5 9.7
2018-Jun-21 21:30N 46°27' W 001°60'5 9.9
2018-Jun-21 21:00N 46°26' W 002°07'5 9.9
2018-Jun-21 20:28N 46°25' W 002°14'27 3.3
2018-Jun-21 12:03N 46°28' W 002°54'1 2.9
2018-Jun-21 11:41N 46°27' W 002°54'1 3.2
2018-Jun-21 11:16N 46°26' W 002°54'3 3.1
2018-Jun-21 10:22N 46°23' W 002°52'1 2.6
2018-Jun-21 09:59N 46°24' W 002°53'1 2.5
2018-Jun-21 09:24N 46°25' W 002°51'3 3.0
2018-Jun-21 08:27N 46°23' W 002°50'2 3.1
2018-Jun-21 07:45N 46°21' W 002°49'1 2.9
2018-Jun-21 07:24N 46°20' W 002°48'1 2.9
2018-Jun-21 06:55N 46°21' W 002°49'1 3.4
2018-Jun-21 06:31N 46°22' W 002°49'2 3.4
2018-Jun-21 06:00N 46°24' W 002°50'2 3.3
2018-Jun-21 05:30N 46°26' W 002°51'2 3.3
2018-Jun-21 05:01N 46°27' W 002°52'2 3.3
2018-Jun-21 04:31N 46°29' W 002°52'2 3.3
2018-Jun-21 04:01N 46°30' W 002°53'2 4.6
2018-Jun-21 03:31N 46°33' W 002°53'1 2.2
2018-Jun-21 03:00N 46°32' W 002°52'2 3.3
2018-Jun-21 02:31N 46°30' W 002°52'2 3.3
2018-Jun-21 02:00N 46°29' W 002°51'2 3.3
2018-Jun-21 01:31N 46°27' W 002°50'2 3.3
2018-Jun-21 01:00N 46°25' W 002°50'2 3.3
2018-Jun-21 00:30N 46°24' W 002°50'1 2.2
2018-Jun-21 00:01N 46°25' W 002°49'2 3.5
2018-Jun-20 23:30N 46°26' W 002°50'2 3.7
2018-Jun-20 23:01N 46°28' W 002°51'2 3.7
2018-Jun-20 22:31N 46°30' W 002°51'2 1.3
2018-Jun-20 20:35N 46°31' W 002°54'0 3.3
2018-Jun-20 20:29N 46°31' W 002°54'2 3.6
2018-Jun-20 19:59N 46°29' W 002°53'10 1.2
2018-Jun-20 12:03N 46°20' W 002°49'1 2.6
2018-Jun-20 11:34N 46°21' W 002°51'1 3.8
2018-Jun-20 11:22N 46°21' W 002°51'1 0.9
2018-Jun-20 10:08N 46°22' W 002°51'0 3.2
2018-Jun-20 10:00N 46°22' W 002°51'2 3.3
2018-Jun-20 09:23N 46°20' W 002°50'22 2.7
2018-Jun-20 01:24N 46°28' W 002°21'410.3
2018-Jun-20 01:01N 46°28' W 002°15'510.6
2018-Jun-20 00:30N 46°29' W 002°08'510.7
2018-Jun-20 00:00N 46°29' W 001°60'510.6
2018-Jun-19 23:30N 46°29' W 001°52'3 6.9
2018-Jun-19 23:00N 46°30' W 001°47'0 0.0
2018-Jun-19 22:31N 46°30' W 001°47'3 6.5
2018-Jun-19 22:00N 46°28' W 001°52'5 9.5
2018-Jun-19 21:31N 46°27' W 001°58'5 9.7
2018-Jun-19 21:00N 46°25' W 002°05'8 9.9
2018-Jun-19 20:13N 46°24' W 002°16'17 9.5
2018-Jun-19 18:24N 46°20' W 002°40'7 1.9
2018-Jun-19 14:47N 46°22' W 002°50'2 3.3
2018-Jun-19 14:15N 46°24' W 002°50'2 2.4
2018-Jun-19 13:29N 46°26' W 002°50'2 3.2
2018-Jun-19 12:48N 46°23' W 002°50'6 1.3
2018-Jun-19 08:34N 46°18' W 002°49'9 1.7
2018-Jun-19 03:20N 46°27' W 002°51'2 5.0
2018-Jun-19 02:55N 46°24' W 002°51'3 4.4
2018-Jun-19 02:10N 46°21' W 002°52'4 3.4
2018-Jun-19 00:56N 46°17' W 002°52'2 0.8
2018-Jun-18 22:28N 46°17' W 002°50'2 3.8
2018-Jun-18 21:59N 46°18' W 002°48'6 1.1
2018-Jun-18 16:50N 46°13' W 002°45'1 2.7
2018-Jun-18 16:23N 46°12' W 002°46'1 3.1
2018-Jun-18 16:00N 46°13' W 002°47'2 0.5
2018-Jun-18 11:56N 46°15' W 002°48'2 3.3
2018-Jun-18 11:21N 46°15' W 002°46'2 3.0
2018-Jun-18 10:38N 46°13' W 002°43'1 3.2
2018-Jun-18 10:12N 46°14' W 002°44'1 3.2
2018-Jun-18 09:59N 46°15' W 002°45'2 2.4
2018-Jun-18 09:08N 46°14' W 002°48'0 3.0
2018-Jun-18 08:58N 46°14' W 002°48'5 2.1
2018-Jun-18 06:48N 46°14' W 002°41'1 3.4
2018-Jun-18 06:22N 46°16' W 002°42'25 5.4
2018-Jun-18 01:49N 46°40' W 002°42'32 9.0
2018-Jun-17 22:17N 47°12' W 002°40'310.0
2018-Jun-17 22:00N 47°14' W 002°38'5 9.9
2018-Jun-17 21:30N 47°19' W 002°34'2 5.0
2018-Jun-17 21:00N 47°18' W 002°31'2 0.0
2018-Jun-16 01:30N 47°19' W 002°33'4 8.7
2018-Jun-16 01:01N 47°18' W 002°40'4 8.4
2018-Jun-16 00:31N 47°18' W 002°46'4 8.2
2018-Jun-16 00:00N 47°17' W 002°52'4 7.6
2018-Jun-15 23:31N 47°16' W 002°57'4 7.8
2018-Jun-15 23:01N 47°16' W 003°03'4 6.9
2018-Jun-15 22:30N 47°15' W 003°08'3 7.0
2018-Jun-15 22:01N 47°15' W 003°13'4 7.2
2018-Jun-15 21:31N 47°14' W 003°18'4 7.4
2018-Jun-15 21:00N 47°13' W 003°23'5 7.4
2018-Jun-15 20:18N 47°12' W 003°31'11 0.9
2018-Jun-15 09:01N 47°13' W 003°46'0 2.9
2018-Jun-15 09:00N 47°13' W 003°46'1 2.9
2018-Jun-15 08:30N 47°13' W 003°48'2 3.2
2018-Jun-15 07:51N 47°14' W 003°51'1 1.5
2018-Jun-15 07:29N 47°14' W 003°50'2 3.2
2018-Jun-15 06:53N 47°13' W 003°48'2 3.3
2018-Jun-15 06:19N 47°13' W 003°45'1 3.2
2018-Jun-15 05:55N 47°13' W 003°43'6 3.1
2018-Jun-15 04:03N 47°13' W 003°35'1 2.9
2018-Jun-15 03:51N 47°13' W 003°34'1 1.9
2018-Jun-15 03:31N 47°13' W 003°33'5 4.5
2018-Jun-15 02:18N 47°14' W 003°41'6 3.7
2018-Jun-15 00:41N 47°14' W 003°50'  
Track history (hours):
 
Tides and Currents Weather Stations Pressure Air Temp Water Temp Dewpoint Dewpoint Depression Visibility Wind Speed Wind Dir Waves Ship Positions

F/V Ville Croisic 5

Last reported at 2018-Jun-25 00:28 UTC. Time now 2018-Jun-25 00:41 UTC.
Position N 46°56' W 002°47'.

Length 21 m.

Type: Fishing. MMSI: 228920000.

Date/timePositionNaut miles runAvg speedWind from/ knotsBaromVisibWave heightAir tempDewpointWater temp
2018-Jun-25 00:28N 46°56' W 002°47'4 8.4
2018-Jun-25 00:00N 46°60' W 002°44'5 9.2
2018-Jun-24 23:28N 47°04' W 002°41'4 9.4
2018-Jun-24 23:00N 47°08' W 002°39'4 8.9
2018-Jun-24 22:30N 47°13' W 002°37'4 8.7
2018-Jun-24 22:00N 47°17' W 002°35'3 6.5
2018-Jun-24 21:31N 47°19' W 002°31'1 1.8
2018-Jun-24 21:00N 47°18' W 002°31'3 0.1
2018-Jun-23 00:24N 47°18' W 002°35'4 9.5
2018-Jun-23 00:00N 47°14' W 002°36'5 9.6
2018-Jun-22 23:28N 47°09' W 002°38'48 2.1
2018-Jun-22 00:38N 46°27' W 002°04'110.1
2018-Jun-22 00:31N 46°27' W 002°02'510.3
2018-Jun-22 00:01N 46°28' W 001°55'510.3
2018-Jun-21 23:31N 46°29' W 001°48'1 2.4
2018-Jun-21 23:00N 46°30' W 001°47'0 1.0
2018-Jun-21 22:30N 46°29' W 001°47'4 7.8
2018-Jun-21 22:01N 46°28' W 001°53'5 9.7
2018-Jun-21 21:30N 46°27' W 001°60'5 9.9
2018-Jun-21 21:00N 46°26' W 002°07'5 9.9
2018-Jun-21 20:28N 46°25' W 002°14'27 3.3
2018-Jun-21 12:03N 46°28' W 002°54'1 2.9
2018-Jun-21 11:41N 46°27' W 002°54'1 3.2
2018-Jun-21 11:16N 46°26' W 002°54'3 3.1
2018-Jun-21 10:22N 46°23' W 002°52'1 2.6
2018-Jun-21 09:59N 46°24' W 002°53'1 2.5
2018-Jun-21 09:24N 46°25' W 002°51'3 3.0
2018-Jun-21 08:27N 46°23' W 002°50'2 3.1
2018-Jun-21 07:45N 46°21' W 002°49'1 2.9
2018-Jun-21 07:24N 46°20' W 002°48'1 2.9
2018-Jun-21 06:55N 46°21' W 002°49'1 3.4
2018-Jun-21 06:31N 46°22' W 002°49'2 3.4
2018-Jun-21 06:00N 46°24' W 002°50'2 3.3
2018-Jun-21 05:30N 46°26' W 002°51'2 3.3
2018-Jun-21 05:01N 46°27' W 002°52'2 3.3
2018-Jun-21 04:31N 46°29' W 002°52'2 3.3
2018-Jun-21 04:01N 46°30' W 002°53'2 4.6
2018-Jun-21 03:31N 46°33' W 002°53'1 2.2
2018-Jun-21 03:00N 46°32' W 002°52'2 3.3
2018-Jun-21 02:31N 46°30' W 002°52'2 3.3
2018-Jun-21 02:00N 46°29' W 002°51'2 3.3
2018-Jun-21 01:31N 46°27' W 002°50'2 3.3
2018-Jun-21 01:00N 46°25' W 002°50'2 3.3
2018-Jun-21 00:30N 46°24' W 002°50'1 2.2
2018-Jun-21 00:01N 46°25' W 002°49'2 3.5
2018-Jun-20 23:30N 46°26' W 002°50'2 3.7
2018-Jun-20 23:01N 46°28' W 002°51'2 3.7
2018-Jun-20 22:31N 46°30' W 002°51'2 1.3
2018-Jun-20 20:35N 46°31' W 002°54'0 3.3
2018-Jun-20 20:29N 46°31' W 002°54'2 3.6
2018-Jun-20 19:59N 46°29' W 002°53'10 1.2
2018-Jun-20 12:03N 46°20' W 002°49'1 2.6
2018-Jun-20 11:34N 46°21' W 002°51'1 3.8
2018-Jun-20 11:22N 46°21' W 002°51'1 0.9
2018-Jun-20 10:08N 46°22' W 002°51'0 3.2
2018-Jun-20 10:00N 46°22' W 002°51'2 3.3
2018-Jun-20 09:23N 46°20' W 002°50'22 2.7
2018-Jun-20 01:24N 46°28' W 002°21'410.3
2018-Jun-20 01:01N 46°28' W 002°15'510.6
2018-Jun-20 00:30N 46°29' W 002°08'510.7
2018-Jun-20 00:00N 46°29' W 001°60'510.6
2018-Jun-19 23:30N 46°29' W 001°52'3 6.9
2018-Jun-19 23:00N 46°30' W 001°47'0 0.0
2018-Jun-19 22:31N 46°30' W 001°47'3 6.5
2018-Jun-19 22:00N 46°28' W 001°52'5 9.5
2018-Jun-19 21:31N 46°27' W 001°58'5 9.7
2018-Jun-19 21:00N 46°25' W 002°05'8 9.9
2018-Jun-19 20:13N 46°24' W 002°16'17 9.5
2018-Jun-19 18:24N 46°20' W 002°40'7 1.9
2018-Jun-19 14:47N 46°22' W 002°50'2 3.3
2018-Jun-19 14:15N 46°24' W 002°50'2 2.4
2018-Jun-19 13:29N 46°26' W 002°50'2 3.2
2018-Jun-19 12:48N 46°23' W 002°50'6 1.3
2018-Jun-19 08:34N 46°18' W 002°49'9 1.7
2018-Jun-19 03:20N 46°27' W 002°51'2 5.0
2018-Jun-19 02:55N 46°24' W 002°51'3 4.4
2018-Jun-19 02:10N 46°21' W 002°52'4 3.4
2018-Jun-19 00:56N 46°17' W 002°52'2 0.8
2018-Jun-18 22:28N 46°17' W 002°50'2 3.8
2018-Jun-18 21:59N 46°18' W 002°48'6 1.1
2018-Jun-18 16:50N 46°13' W 002°45'1 2.7
2018-Jun-18 16:23N 46°12' W 002°46'1 3.1
2018-Jun-18 16:00N 46°13' W 002°47'2 0.5
2018-Jun-18 11:56N 46°15' W 002°48'2 3.3
2018-Jun-18 11:21N 46°15' W 002°46'2 3.0
2018-Jun-18 10:38N 46°13' W 002°43'1 3.2
2018-Jun-18 10:12N 46°14' W 002°44'1 3.2
2018-Jun-18 09:59N 46°15' W 002°45'2 2.4
2018-Jun-18 09:08N 46°14' W 002°48'0 3.0
2018-Jun-18 08:58N 46°14' W 002°48'5 2.1
2018-Jun-18 06:48N 46°14' W 002°41'1 3.4
2018-Jun-18 06:22N 46°16' W 002°42'25 5.4
2018-Jun-18 01:49N 46°40' W 002°42'32 9.0
2018-Jun-17 22:17N 47°12' W 002°40'310.0
2018-Jun-17 22:00N 47°14' W 002°38'5 9.9
2018-Jun-17 21:30N 47°19' W 002°34'2 5.0
2018-Jun-17 21:00N 47°18' W 002°31'2 0.0
2018-Jun-16 01:30N 47°19' W 002°33'4 8.7
2018-Jun-16 01:01N 47°18' W 002°40'4 8.4
2018-Jun-16 00:31N 47°18' W 002°46'4 8.2
2018-Jun-16 00:00N 47°17' W 002°52'4 7.6
2018-Jun-15 23:31N 47°16' W 002°57'4 7.8
2018-Jun-15 23:01N 47°16' W 003°03'4 6.9
2018-Jun-15 22:30N 47°15' W 003°08'3 7.0
2018-Jun-15 22:01N 47°15' W 003°13'4 7.2
2018-Jun-15 21:31N 47°14' W 003°18'4 7.4
2018-Jun-15 21:00N 47°13' W 003°23'5 7.4
2018-Jun-15 20:18N 47°12' W 003°31'11 0.9
2018-Jun-15 09:01N 47°13' W 003°46'0 2.9
2018-Jun-15 09:00N 47°13' W 003°46'1 2.9
2018-Jun-15 08:30N 47°13' W 003°48'2 3.2
2018-Jun-15 07:51N 47°14' W 003°51'1 1.5
2018-Jun-15 07:29N 47°14' W 003°50'2 3.2
2018-Jun-15 06:53N 47°13' W 003°48'2 3.3
2018-Jun-15 06:19N 47°13' W 003°45'1 3.2
2018-Jun-15 05:55N 47°13' W 003°43'6 3.1
2018-Jun-15 04:03N 47°13' W 003°35'1 2.9
2018-Jun-15 03:51N 47°13' W 003°34'1 1.9
2018-Jun-15 03:31N 47°13' W 003°33'5 4.5
2018-Jun-15 02:18N 47°14' W 003°41'6 3.7
2018-Jun-15 00:41N 47°14' W 003°50'  

Dump ship's entire track history